Hlavní strana
METAR-TAF:

METAR-TAF

Letiště :

Anapa, Rusko

zeměpisná šířka: 44-54N, zeměpisná délka: 037-19E, výška: 53 m

Aktuální stav počasí

Zpráva byla vytvořena před 16 minutami, v 00:00 UTC
Jihojihozápadní vítr 12 kt, proměnlivý mezi jihojihovýchodním a jihozápadním
Teplota 14°C
Vlhkost vzduchu 72%
Tlak 1018 hPa
Viditelnost 10 km a více

METAR: URKA 220000Z AUTO 20006MPS 160V220 9999 // NCD 14/09 Q1018 RMK QFE760/1013

Čas: 04:16 (00:16 UTC)

Předpověď počasí

Zpráva byla vytvořena před 1 hodinou a 31 minutami, v 22:45 UTC
Předpověď platná od 22 v 00 UTC do 22 v 24 UTC
Jihojihozápadní vítr 14 kt s nárazy do 27 kt
Viditelnost 10 km a více
Polojasno ve výšce 3000 ft
Dočasný
od 22 v 03 UTC do 22 v 24 UTC
Jižní vítr 21 kt s nárazy do 31 kt

TAF: URKA 212245Z 2200/2224 20007G14MPS 9999 SCT030 TEMPO 2203/2224 17011G16MPS

Stav a předpovědi počasí z více než 4 000 letišť (zprávy METAR a TAF).

Červené a žluté tečky na mapě představují dostupné meteorologické stanice.

Když kurzor umístíte na tečku, zobrazí se název stanice.

Pak kliknutím zobrazíte stav a předpověď počasí.

Chcete-li změnit mapu, kliknutím na zelené tlačítko se znaménkem +mapu přiblížíte, kliknutím na zelené tlačítko se znaménkem – mapu oddálíte a kliknutím na zelené šipky přejdete na sousední mapy.


METAR-TAF: